sensor_id;sensor_type;location;lat;lon;timestamp;P1;durP1;ratioP1;P2;durP2;ratioP2
18623;SDS011;9441;51.420;7.036;2024-01-07T00:00:50;32.67;;;14.73;;
18623;SDS011;9441;51.420;7.036;2024-01-07T00:01:53;39.47;;;14.50;;
18623;SDS011;9441;51.420;7.036;2024-01-07T00:02:54;33.03;;;14.20;;
18623;SDS011;9441;51.420;7.036;2024-01-07T00:03:56;35.13;;;14.83;;
18623;SDS011;9441;51.420;7.036;2024-01-07T00:04:58;38.73;;;15.27;;
18623;SDS011;9441;51.420;7.036;2024-01-07T00:06:02;34.80;;;14.97;;
18623;SDS011;9441;51.420;7.036;2024-01-07T00:07:03;38.90;;;14.60;;
18623;SDS011;9441;51.420;7.036;2024-01-07T00:08:06;36.00;;;15.17;;
18623;SDS011;9441;51.420;7.036;2024-01-07T00:09:10;35.07;;;15.30;;
18623;SDS011;9441;51.420;7.036;2024-01-07T00:10:12;39.67;;;15.83;;
18623;SDS011;9441;51.420;7.036;2024-01-07T00:11:13;30.93;;;14.63;;
18623;SDS011;9441;51.420;7.036;2024-01-07T00:12:16;35.70;;;15.07;;
18623;SDS011;9441;51.420;7.036;2024-01-07T00:13:17;40.50;;;16.33;;
18623;SDS011;9441;51.420;7.036;2024-01-07T00:14:19;36.57;;;15.67;;
18623;SDS011;9441;51.420;7.036;2024-01-07T00:15:21;37.97;;;15.83;;
18623;SDS011;9441;51.420;7.036;2024-01-07T00:16:25;38.60;;;15.53;;
18623;SDS011;9441;51.420;7.036;2024-01-07T00:17:27;35.90;;;15.63;;
18623;SDS011;9441;51.420;7.036;2024-01-07T00:18:29;36.77;;;15.60;;
18623;SDS011;9441;51.420;7.036;2024-01-07T00:19:31;42.87;;;15.83;;
18623;SDS011;9441;51.420;7.036;2024-01-07T00:20:35;40.77;;;15.77;;
18623;SDS011;9441;51.420;7.036;2024-01-07T00:21:37;42.47;;;17.43;;
18623;SDS011;9441;51.420;7.036;2024-01-07T00:22:39;39.43;;;17.13;;
18623;SDS011;9441;51.420;7.036;2024-01-07T00:23:40;37.97;;;15.57;;
18623;SDS011;9441;51.420;7.036;2024-01-07T00:24:44;43.10;;;16.97;;
18623;SDS011;9441;51.420;7.036;2024-01-07T00:25:45;44.93;;;16.63;;
18623;SDS011;9441;51.420;7.036;2024-01-07T00:26:47;43.30;;;16.60;;
18623;SDS011;9441;51.420;7.036;2024-01-07T00:27:49;41.50;;;16.57;;
18623;SDS011;9441;51.420;7.036;2024-01-07T00:28:55;40.50;;;15.97;;
18623;SDS011;9441;51.420;7.036;2024-01-07T00:29:56;42.63;;;16.23;;
18623;SDS011;9441;51.420;7.036;2024-01-07T00:30:59;40.10;;;16.67;;
18623;SDS011;9441;51.420;7.036;2024-01-07T00:32:00;38.80;;;16.10;;
18623;SDS011;9441;51.420;7.036;2024-01-07T00:33:02;38.00;;;16.27;;
18623;SDS011;9441;51.420;7.036;2024-01-07T00:34:04;44.63;;;16.27;;
18623;SDS011;9441;51.420;7.036;2024-01-07T00:35:06;35.63;;;15.70;;
18623;SDS011;9441;51.420;7.036;2024-01-07T00:36:08;41.17;;;15.63;;
18623;SDS011;9441;51.420;7.036;2024-01-07T00:37:10;39.00;;;15.77;;
18623;SDS011;9441;51.420;7.036;2024-01-07T00:38:11;37.60;;;15.60;;
18623;SDS011;9441;51.420;7.036;2024-01-07T00:39:14;37.13;;;14.83;;
18623;SDS011;9441;51.420;7.036;2024-01-07T00:40:17;37.80;;;16.23;;
18623;SDS011;9441;51.420;7.036;2024-01-07T00:41:19;35.50;;;15.93;;
18623;SDS011;9441;51.420;7.036;2024-01-07T00:42:21;38.37;;;15.90;;
18623;SDS011;9441;51.420;7.036;2024-01-07T00:43:22;35.87;;;15.37;;
18623;SDS011;9441;51.420;7.036;2024-01-07T00:44:25;39.53;;;15.73;;
18623;SDS011;9441;51.420;7.036;2024-01-07T00:45:26;37.00;;;15.77;;
18623;SDS011;9441;51.420;7.036;2024-01-07T00:46:28;37.17;;;15.47;;
18623;SDS011;9441;51.420;7.036;2024-01-07T00:47:30;39.17;;;15.77;;
18623;SDS011;9441;51.420;7.036;2024-01-07T00:48:32;36.50;;;15.47;;
18623;SDS011;9441;51.420;7.036;2024-01-07T00:49:33;32.27;;;14.37;;
18623;SDS011;9441;51.420;7.036;2024-01-07T00:50:36;39.13;;;15.93;;
18623;SDS011;9441;51.420;7.036;2024-01-07T00:51:37;35.53;;;16.00;;
18623;SDS011;9441;51.420;7.036;2024-01-07T00:52:38;37.57;;;15.50;;
18623;SDS011;9441;51.420;7.036;2024-01-07T00:53:42;33.80;;;15.07;;
18623;SDS011;9441;51.420;7.036;2024-01-07T00:54:44;37.77;;;16.13;;
18623;SDS011;9441;51.420;7.036;2024-01-07T00:55:48;37.33;;;14.70;;
18623;SDS011;9441;51.420;7.036;2024-01-07T00:56:49;37.53;;;15.17;;
18623;SDS011;9441;51.420;7.036;2024-01-07T00:57:51;39.47;;;14.93;;
18623;SDS011;9441;51.420;7.036;2024-01-07T00:58:53;36.27;;;15.07;;
18623;SDS011;9441;51.420;7.036;2024-01-07T00:59:54;37.37;;;15.70;;
18623;SDS011;9441;51.420;7.036;2024-01-07T01:00:56;40.97;;;16.03;;
18623;SDS011;9441;51.420;7.036;2024-01-07T01:02:00;34.07;;;15.40;;
18623;SDS011;9441;51.420;7.036;2024-01-07T01:03:03;36.03;;;14.80;;
18623;SDS011;9441;51.420;7.036;2024-01-07T01:04:04;36.33;;;15.80;;
18623;SDS011;9441;51.420;7.036;2024-01-07T01:05:07;34.70;;;15.07;;
18623;SDS011;9441;51.420;7.036;2024-01-07T01:06:08;32.03;;;13.70;;
18623;SDS011;9441;51.420;7.036;2024-01-07T01:07:10;34.07;;;14.53;;
18623;SDS011;9441;51.420;7.036;2024-01-07T01:08:12;37.53;;;14.90;;
18623;SDS011;9441;51.420;7.036;2024-01-07T01:09:13;31.83;;;14.73;;
18623;SDS011;9441;51.420;7.036;2024-01-07T01:10:15;35.00;;;15.00;;
18623;SDS011;9441;51.420;7.036;2024-01-07T01:11:19;39.97;;;15.47;;
18623;SDS011;9441;51.420;7.036;2024-01-07T01:12:22;34.90;;;14.67;;
18623;SDS011;9441;51.420;7.036;2024-01-07T01:13:23;33.27;;;14.00;;
18623;SDS011;9441;51.420;7.036;2024-01-07T01:14:26;36.80;;;15.33;;
18623;SDS011;9441;51.420;7.036;2024-01-07T01:15:28;38.83;;;15.43;;
18623;SDS011;9441;51.420;7.036;2024-01-07T01:16:30;35.00;;;15.37;;
18623;SDS011;9441;51.420;7.036;2024-01-07T01:17:32;37.23;;;15.87;;
18623;SDS011;9441;51.420;7.036;2024-01-07T01:18:33;33.30;;;14.47;;
18623;SDS011;9441;51.420;7.036;2024-01-07T01:19:35;36.70;;;15.27;;
18623;SDS011;9441;51.420;7.036;2024-01-07T01:20:37;34.47;;;14.43;;
18623;SDS011;9441;51.420;7.036;2024-01-07T01:21:39;39.07;;;15.57;;
18623;SDS011;9441;51.420;7.036;2024-01-07T01:22:40;34.27;;;14.20;;
18623;SDS011;9441;51.420;7.036;2024-01-07T01:23:43;36.53;;;14.97;;
18623;SDS011;9441;51.420;7.036;2024-01-07T01:24:44;35.80;;;14.80;;
18623;SDS011;9441;51.420;7.036;2024-01-07T01:25:47;37.10;;;15.40;;
18623;SDS011;9441;51.420;7.036;2024-01-07T01:26:50;38.50;;;15.63;;
18623;SDS011;9441;51.420;7.036;2024-01-07T01:27:52;35.03;;;14.47;;
18623;SDS011;9441;51.420;7.036;2024-01-07T01:28:53;36.43;;;15.53;;
18623;SDS011;9441;51.420;7.036;2024-01-07T01:29:56;37.90;;;15.80;;
18623;SDS011;9441;51.420;7.036;2024-01-07T01:30:57;37.17;;;15.53;;
18623;SDS011;9441;51.420;7.036;2024-01-07T01:31:59;35.33;;;15.03;;
18623;SDS011;9441;51.420;7.036;2024-01-07T01:33:01;39.50;;;15.97;;
18623;SDS011;9441;51.420;7.036;2024-01-07T01:34:02;34.37;;;14.77;;
18623;SDS011;9441;51.420;7.036;2024-01-07T01:35:05;39.07;;;15.90;;
18623;SDS011;9441;51.420;7.036;2024-01-07T01:36:07;34.53;;;14.80;;
18623;SDS011;9441;51.420;7.036;2024-01-07T01:37:09;37.07;;;15.37;;
18623;SDS011;9441;51.420;7.036;2024-01-07T01:38:10;38.03;;;15.23;;
18623;SDS011;9441;51.420;7.036;2024-01-07T01:39:13;38.97;;;15.60;;
18623;SDS011;9441;51.420;7.036;2024-01-07T01:40:16;40.37;;;16.53;;
18623;SDS011;9441;51.420;7.036;2024-01-07T01:41:18;37.37;;;15.07;;
18623;SDS011;9441;51.420;7.036;2024-01-07T01:42:21;45.10;;;17.07;;
18623;SDS011;9441;51.420;7.036;2024-01-07T01:43:23;40.97;;;16.10;;
18623;SDS011;9441;51.420;7.036;2024-01-07T01:44:25;38.60;;;15.37;;
18623;SDS011;9441;51.420;7.036;2024-01-07T01:45:27;40.63;;;16.93;;
18623;SDS011;9441;51.420;7.036;2024-01-07T01:46:29;40.47;;;16.53;;
18623;SDS011;9441;51.420;7.036;2024-01-07T01:47:31;41.03;;;15.90;;
18623;SDS011;9441;51.420;7.036;2024-01-07T01:48:33;39.43;;;15.40;;
18623;SDS011;9441;51.420;7.036;2024-01-07T01:49:36;43.53;;;17.03;;
18623;SDS011;9441;51.420;7.036;2024-01-07T01:50:38;39.50;;;15.93;;
18623;SDS011;9441;51.420;7.036;2024-01-07T01:51:39;43.63;;;17.13;;
18623;SDS011;9441;51.420;7.036;2024-01-07T01:52:42;47.77;;;16.53;;
18623;SDS011;9441;51.420;7.036;2024-01-07T01:53:44;42.53;;;16.20;;
18623;SDS011;9441;51.420;7.036;2024-01-07T01:54:47;44.63;;;17.17;;
18623;SDS011;9441;51.420;7.036;2024-01-07T01:55:48;39.50;;;16.10;;
18623;SDS011;9441;51.420;7.036;2024-01-07T01:56:51;39.80;;;16.40;;
18623;SDS011;9441;51.420;7.036;2024-01-07T01:57:53;42.00;;;16.73;;
18623;SDS011;9441;51.420;7.036;2024-01-07T01:58:56;45.90;;;16.93;;
18623;SDS011;9441;51.420;7.036;2024-01-07T01:59:57;43.27;;;16.77;;
18623;SDS011;9441;51.420;7.036;2024-01-07T02:01:05;45.00;;;16.47;;
18623;SDS011;9441;51.420;7.036;2024-01-07T02:02:07;36.53;;;15.83;;
18623;SDS011;9441;51.420;7.036;2024-01-07T02:03:09;39.70;;;16.13;;
18623;SDS011;9441;51.420;7.036;2024-01-07T02:04:10;42.33;;;16.67;;
18623;SDS011;9441;51.420;7.036;2024-01-07T02:05:13;48.87;;;17.07;;
18623;SDS011;9441;51.420;7.036;2024-01-07T02:06:15;41.47;;;16.07;;
18623;SDS011;9441;51.420;7.036;2024-01-07T02:07:18;42.27;;;16.40;;
18623;SDS011;9441;51.420;7.036;2024-01-07T02:08:19;41.97;;;15.87;;
18623;SDS011;9441;51.420;7.036;2024-01-07T02:09:22;42.77;;;16.30;;
18623;SDS011;9441;51.420;7.036;2024-01-07T02:10:23;40.27;;;16.60;;
18623;SDS011;9441;51.420;7.036;2024-01-07T02:11:25;36.13;;;16.17;;
18623;SDS011;9441;51.420;7.036;2024-01-07T02:12:26;44.80;;;17.13;;
18623;SDS011;9441;51.420;7.036;2024-01-07T02:13:30;43.30;;;15.80;;
18623;SDS011;9441;51.420;7.036;2024-01-07T02:14:31;35.50;;;15.93;;
18623;SDS011;9441;51.420;7.036;2024-01-07T02:15:34;43.67;;;16.10;;
18623;SDS011;9441;51.420;7.036;2024-01-07T02:16:35;38.27;;;15.83;;
18623;SDS011;9441;51.420;7.036;2024-01-07T02:17:37;43.07;;;17.20;;
18623;SDS011;9441;51.420;7.036;2024-01-07T02:18:39;40.10;;;16.77;;
18623;SDS011;9441;51.420;7.036;2024-01-07T02:19:42;41.13;;;16.83;;
18623;SDS011;9441;51.420;7.036;2024-01-07T02:20:44;38.17;;;16.50;;
18623;SDS011;9441;51.420;7.036;2024-01-07T02:21:46;39.50;;;15.70;;
18623;SDS011;9441;51.420;7.036;2024-01-07T02:22:47;41.73;;;17.53;;
18623;SDS011;9441;51.420;7.036;2024-01-07T02:23:49;37.80;;;16.60;;
18623;SDS011;9441;51.420;7.036;2024-01-07T02:24:52;39.87;;;17.07;;
18623;SDS011;9441;51.420;7.036;2024-01-07T02:25:54;41.67;;;16.70;;
18623;SDS011;9441;51.420;7.036;2024-01-07T02:26:56;38.43;;;16.77;;
18623;SDS011;9441;51.420;7.036;2024-01-07T02:27:59;44.67;;;17.30;;
18623;SDS011;9441;51.420;7.036;2024-01-07T02:29:00;39.30;;;16.77;;
18623;SDS011;9441;51.420;7.036;2024-01-07T02:30:02;41.87;;;17.00;;
18623;SDS011;9441;51.420;7.036;2024-01-07T02:31:04;41.20;;;17.30;;
18623;SDS011;9441;51.420;7.036;2024-01-07T02:32:07;45.00;;;18.87;;
18623;SDS011;9441;51.420;7.036;2024-01-07T02:33:08;43.83;;;17.50;;
18623;SDS011;9441;51.420;7.036;2024-01-07T02:34:11;38.10;;;16.47;;
18623;SDS011;9441;51.420;7.036;2024-01-07T02:35:13;36.80;;;17.13;;
18623;SDS011;9441;51.420;7.036;2024-01-07T02:36:15;38.07;;;16.93;;
18623;SDS011;9441;51.420;7.036;2024-01-07T02:37:16;41.23;;;16.87;;
18623;SDS011;9441;51.420;7.036;2024-01-07T02:38:19;39.47;;;17.07;;
18623;SDS011;9441;51.420;7.036;2024-01-07T02:39:20;45.13;;;17.17;;
18623;SDS011;9441;51.420;7.036;2024-01-07T02:40:24;38.40;;;17.20;;
18623;SDS011;9441;51.420;7.036;2024-01-07T02:41:25;39.07;;;15.87;;
18623;SDS011;9441;51.420;7.036;2024-01-07T02:42:27;36.23;;;15.93;;
18623;SDS011;9441;51.420;7.036;2024-01-07T02:43:29;38.37;;;16.27;;
18623;SDS011;9441;51.420;7.036;2024-01-07T02:44:31;35.63;;;14.97;;
18623;SDS011;9441;51.420;7.036;2024-01-07T02:45:32;35.37;;;15.40;;
18623;SDS011;9441;51.420;7.036;2024-01-07T02:46:35;35.33;;;15.47;;
18623;SDS011;9441;51.420;7.036;2024-01-07T02:47:37;37.03;;;15.07;;
18623;SDS011;9441;51.420;7.036;2024-01-07T02:48:39;34.70;;;15.13;;
18623;SDS011;9441;51.420;7.036;2024-01-07T02:49:40;33.13;;;15.73;;
18623;SDS011;9441;51.420;7.036;2024-01-07T02:50:42;33.57;;;14.77;;
18623;SDS011;9441;51.420;7.036;2024-01-07T02:51:44;30.50;;;15.17;;
18623;SDS011;9441;51.420;7.036;2024-01-07T02:52:50;29.53;;;14.23;;
18623;SDS011;9441;51.420;7.036;2024-01-07T02:53:51;32.67;;;14.10;;
18623;SDS011;9441;51.420;7.036;2024-01-07T02:54:52;36.43;;;15.67;;
18623;SDS011;9441;51.420;7.036;2024-01-07T02:55:56;39.13;;;15.57;;
18623;SDS011;9441;51.420;7.036;2024-01-07T02:56:57;33.00;;;15.43;;
18623;SDS011;9441;51.420;7.036;2024-01-07T02:57:58;37.43;;;15.47;;
18623;SDS011;9441;51.420;7.036;2024-01-07T02:59:01;32.70;;;15.10;;
18623;SDS011;9441;51.420;7.036;2024-01-07T03:00:02;36.20;;;15.37;;
18623;SDS011;9441;51.420;7.036;2024-01-07T03:01:08;34.13;;;15.00;;
18623;SDS011;9441;51.420;7.036;2024-01-07T03:02:09;37.23;;;15.90;;
18623;SDS011;9441;51.420;7.036;2024-01-07T03:03:12;39.80;;;16.03;;
18623;SDS011;9441;51.420;7.036;2024-01-07T03:04:13;37.57;;;16.30;;
18623;SDS011;9441;51.420;7.036;2024-01-07T03:05:16;39.47;;;16.93;;
18623;SDS011;9441;51.420;7.036;2024-01-07T03:06:17;41.63;;;16.80;;
18623;SDS011;9441;51.420;7.036;2024-01-07T03:07:19;39.40;;;16.03;;
18623;SDS011;9441;51.420;7.036;2024-01-07T03:08:20;35.73;;;16.27;;
18623;SDS011;9441;51.420;7.036;2024-01-07T03:09:23;37.00;;;15.40;;
18623;SDS011;9441;51.420;7.036;2024-01-07T03:10:24;38.87;;;16.47;;
18623;SDS011;9441;51.420;7.036;2024-01-07T03:11:28;37.63;;;15.97;;
18623;SDS011;9441;51.420;7.036;2024-01-07T03:12:29;38.90;;;16.97;;
18623;SDS011;9441;51.420;7.036;2024-01-07T03:13:32;41.67;;;17.20;;
18623;SDS011;9441;51.420;7.036;2024-01-07T03:14:33;40.03;;;17.17;;
18623;SDS011;9441;51.420;7.036;2024-01-07T03:15:35;41.33;;;16.93;;
18623;SDS011;9441;51.420;7.036;2024-01-07T03:16:38;40.20;;;17.17;;
18623;SDS011;9441;51.420;7.036;2024-01-07T03:17:40;43.27;;;18.33;;
18623;SDS011;9441;51.420;7.036;2024-01-07T03:18:41;42.73;;;18.77;;
18623;SDS011;9441;51.420;7.036;2024-01-07T03:19:44;41.47;;;17.87;;
18623;SDS011;9441;51.420;7.036;2024-01-07T03:20:45;55.07;;;19.37;;
18623;SDS011;9441;51.420;7.036;2024-01-07T03:21:47;43.67;;;17.67;;
18623;SDS011;9441;51.420;7.036;2024-01-07T03:22:49;45.03;;;17.63;;
18623;SDS011;9441;51.420;7.036;2024-01-07T03:23:51;41.80;;;17.23;;
18623;SDS011;9441;51.420;7.036;2024-01-07T03:24:52;45.73;;;19.47;;
18623;SDS011;9441;51.420;7.036;2024-01-07T03:25:54;46.53;;;18.60;;
18623;SDS011;9441;51.420;7.036;2024-01-07T03:27:00;39.77;;;17.60;;
18623;SDS011;9441;51.420;7.036;2024-01-07T03:28:02;41.57;;;18.27;;
18623;SDS011;9441;51.420;7.036;2024-01-07T03:29:03;45.97;;;18.77;;
18623;SDS011;9441;51.420;7.036;2024-01-07T03:30:06;39.50;;;18.30;;
18623;SDS011;9441;51.420;7.036;2024-01-07T03:31:09;44.70;;;18.67;;
18623;SDS011;9441;51.420;7.036;2024-01-07T03:32:12;37.23;;;16.70;;
18623;SDS011;9441;51.420;7.036;2024-01-07T03:33:13;43.10;;;17.90;;
18623;SDS011;9441;51.420;7.036;2024-01-07T03:34:15;45.27;;;18.37;;
18623;SDS011;9441;51.420;7.036;2024-01-07T03:35:16;45.37;;;18.43;;
18623;SDS011;9441;51.420;7.036;2024-01-07T03:36:19;36.37;;;16.67;;
18623;SDS011;9441;51.420;7.036;2024-01-07T03:37:20;36.70;;;17.17;;
18623;SDS011;9441;51.420;7.036;2024-01-07T03:38:22;39.50;;;17.57;;
18623;SDS011;9441;51.420;7.036;2024-01-07T03:39:24;41.40;;;18.27;;
18623;SDS011;9441;51.420;7.036;2024-01-07T03:40:25;41.90;;;18.27;;
18623;SDS011;9441;51.420;7.036;2024-01-07T03:41:27;38.63;;;17.27;;
18623;SDS011;9441;51.420;7.036;2024-01-07T03:42:30;38.13;;;17.30;;
18623;SDS011;9441;51.420;7.036;2024-01-07T03:43:32;40.00;;;18.30;;
18623;SDS011;9441;51.420;7.036;2024-01-07T03:44:33;38.10;;;17.23;;
18623;SDS011;9441;51.420;7.036;2024-01-07T03:45:36;42.03;;;17.90;;
18623;SDS011;9441;51.420;7.036;2024-01-07T03:46:37;42.63;;;17.83;;
18623;SDS011;9441;51.420;7.036;2024-01-07T03:47:39;37.80;;;18.17;;
18623;SDS011;9441;51.420;7.036;2024-01-07T03:48:41;37.10;;;16.80;;
18623;SDS011;9441;51.420;7.036;2024-01-07T03:49:43;36.23;;;17.70;;
18623;SDS011;9441;51.420;7.036;2024-01-07T03:50:44;37.63;;;17.63;;
18623;SDS011;9441;51.420;7.036;2024-01-07T03:51:46;35.07;;;17.40;;
18623;SDS011;9441;51.420;7.036;2024-01-07T03:52:48;38.50;;;17.23;;
18623;SDS011;9441;51.420;7.036;2024-01-07T03:53:49;37.80;;;16.90;;
18623;SDS011;9441;51.420;7.036;2024-01-07T03:54:50;38.93;;;17.10;;
18623;SDS011;9441;51.420;7.036;2024-01-07T03:55:53;36.10;;;16.60;;
18623;SDS011;9441;51.420;7.036;2024-01-07T03:56:54;37.73;;;17.13;;
18623;SDS011;9441;51.420;7.036;2024-01-07T03:57:58;38.23;;;17.63;;
18623;SDS011;9441;51.420;7.036;2024-01-07T03:58:59;39.00;;;17.93;;
18623;SDS011;9441;51.420;7.036;2024-01-07T04:00:01;41.07;;;17.47;;
18623;SDS011;9441;51.420;7.036;2024-01-07T04:01:05;36.90;;;16.63;;
18623;SDS011;9441;51.420;7.036;2024-01-07T04:02:07;36.63;;;16.03;;
18623;SDS011;9441;51.420;7.036;2024-01-07T04:03:08;37.70;;;17.00;;
18623;SDS011;9441;51.420;7.036;2024-01-07T04:04:10;38.70;;;18.40;;
18623;SDS011;9441;51.420;7.036;2024-01-07T04:05:12;34.53;;;16.50;;
18623;SDS011;9441;51.420;7.036;2024-01-07T04:06:15;40.67;;;17.57;;
18623;SDS011;9441;51.420;7.036;2024-01-07T04:07:16;36.23;;;17.10;;
18623;SDS011;9441;51.420;7.036;2024-01-07T04:08:18;35.97;;;16.57;;
18623;SDS011;9441;51.420;7.036;2024-01-07T04:09:20;36.77;;;16.60;;
18623;SDS011;9441;51.420;7.036;2024-01-07T04:10:21;34.37;;;16.87;;
18623;SDS011;9441;51.420;7.036;2024-01-07T04:11:23;33.37;;;15.90;;
18623;SDS011;9441;51.420;7.036;2024-01-07T04:12:25;34.90;;;16.53;;
18623;SDS011;9441;51.420;7.036;2024-01-07T04:13:28;31.77;;;16.60;;
18623;SDS011;9441;51.420;7.036;2024-01-07T04:14:29;39.17;;;17.20;;
18623;SDS011;9441;51.420;7.036;2024-01-07T04:15:33;37.03;;;16.57;;
18623;SDS011;9441;51.420;7.036;2024-01-07T04:16:35;37.13;;;17.10;;
18623;SDS011;9441;51.420;7.036;2024-01-07T04:17:37;31.63;;;16.03;;
18623;SDS011;9441;51.420;7.036;2024-01-07T04:18:38;34.00;;;16.50;;
18623;SDS011;9441;51.420;7.036;2024-01-07T04:19:41;31.83;;;14.97;;
18623;SDS011;9441;51.420;7.036;2024-01-07T04:20:42;36.27;;;16.77;;
18623;SDS011;9441;51.420;7.036;2024-01-07T04:21:45;37.13;;;15.97;;
18623;SDS011;9441;51.420;7.036;2024-01-07T04:22:46;34.93;;;16.20;;
18623;SDS011;9441;51.420;7.036;2024-01-07T04:23:48;34.27;;;16.37;;
18623;SDS011;9441;51.420;7.036;2024-01-07T04:24:50;34.47;;;16.33;;
18623;SDS011;9441;51.420;7.036;2024-01-07T04:25:51;34.47;;;15.90;;
18623;SDS011;9441;51.420;7.036;2024-01-07T04:26:53;34.47;;;16.33;;
18623;SDS011;9441;51.420;7.036;2024-01-07T04:27:55;35.57;;;17.23;;
18623;SDS011;9441;51.420;7.036;2024-01-07T04:28:58;31.03;;;15.63;;
18623;SDS011;9441;51.420;7.036;2024-01-07T04:30:00;31.80;;;15.87;;
18623;SDS011;9441;51.420;7.036;2024-01-07T04:31:02;32.70;;;16.50;;
18623;SDS011;9441;51.420;7.036;2024-01-07T04:32:04;35.20;;;15.90;;
18623;SDS011;9441;51.420;7.036;2024-01-07T04:33:06;34.83;;;16.63;;
18623;SDS011;9441;51.420;7.036;2024-01-07T04:34:07;32.03;;;15.80;;
18623;SDS011;9441;51.420;7.036;2024-01-07T04:35:10;31.67;;;15.50;;
18623;SDS011;9441;51.420;7.036;2024-01-07T04:36:11;33.07;;;15.27;;
18623;SDS011;9441;51.420;7.036;2024-01-07T04:37:13;31.97;;;16.37;;
18623;SDS011;9441;51.420;7.036;2024-01-07T04:38:14;36.10;;;15.90;;
18623;SDS011;9441;51.420;7.036;2024-01-07T04:39:17;31.33;;;16.07;;
18623;SDS011;9441;51.420;7.036;2024-01-07T04:40:18;30.30;;;15.10;;
18623;SDS011;9441;51.420;7.036;2024-01-07T04:41:20;32.83;;;16.10;;
18623;SDS011;9441;51.420;7.036;2024-01-07T04:42:21;30.10;;;15.13;;
18623;SDS011;9441;51.420;7.036;2024-01-07T04:43:24;32.20;;;15.93;;
18623;SDS011;9441;51.420;7.036;2024-01-07T04:44:27;32.70;;;16.33;;
18623;SDS011;9441;51.420;7.036;2024-01-07T04:45:29;31.87;;;16.37;;
18623;SDS011;9441;51.420;7.036;2024-01-07T04:46:33;32.27;;;16.03;;
18623;SDS011;9441;51.420;7.036;2024-01-07T04:47:35;31.83;;;16.43;;
18623;SDS011;9441;51.420;7.036;2024-01-07T04:48:37;33.07;;;16.07;;
18623;SDS011;9441;51.420;7.036;2024-01-07T04:49:39;34.43;;;16.00;;
18623;SDS011;9441;51.420;7.036;2024-01-07T04:50:41;35.03;;;16.83;;
18623;SDS011;9441;51.420;7.036;2024-01-07T04:51:43;37.17;;;16.73;;
18623;SDS011;9441;51.420;7.036;2024-01-07T04:52:44;38.40;;;15.97;;
18623;SDS011;9441;51.420;7.036;2024-01-07T04:53:46;36.43;;;16.57;;
18623;SDS011;9441;51.420;7.036;2024-01-07T04:54:49;33.43;;;16.03;;
18623;SDS011;9441;51.420;7.036;2024-01-07T04:55:51;36.40;;;16.70;;
18623;SDS011;9441;51.420;7.036;2024-01-07T04:56:53;30.60;;;15.63;;
18623;SDS011;9441;51.420;7.036;2024-01-07T04:57:54;35.20;;;16.83;;
18623;SDS011;9441;51.420;7.036;2024-01-07T04:58:57;34.63;;;16.27;;
18623;SDS011;9441;51.420;7.036;2024-01-07T04:59:59;33.90;;;15.50;;
18623;SDS011;9441;51.420;7.036;2024-01-07T05:01:02;35.10;;;16.47;;
18623;SDS011;9441;51.420;7.036;2024-01-07T05:02:03;33.87;;;16.80;;
18623;SDS011;9441;51.420;7.036;2024-01-07T05:03:04;33.80;;;16.03;;
18623;SDS011;9441;51.420;7.036;2024-01-07T05:04:06;35.60;;;16.30;;
18623;SDS011;9441;51.420;7.036;2024-01-07T05:05:08;33.37;;;16.40;;
18623;SDS011;9441;51.420;7.036;2024-01-07T05:06:10;37.07;;;15.93;;
18623;SDS011;9441;51.420;7.036;2024-01-07T05:07:12;37.07;;;16.73;;
18623;SDS011;9441;51.420;7.036;2024-01-07T05:08:14;34.30;;;16.80;;
18623;SDS011;9441;51.420;7.036;2024-01-07T05:09:15;37.87;;;16.63;;
18623;SDS011;9441;51.420;7.036;2024-01-07T05:10:17;38.80;;;16.73;;
18623;SDS011;9441;51.420;7.036;2024-01-07T05:11:19;37.17;;;16.83;;
18623;SDS011;9441;51.420;7.036;2024-01-07T05:12:21;37.70;;;16.90;;
18623;SDS011;9441;51.420;7.036;2024-01-07T05:13:22;33.00;;;16.23;;
18623;SDS011;9441;51.420;7.036;2024-01-07T05:14:24;37.50;;;16.20;;
18623;SDS011;9441;51.420;7.036;2024-01-07T05:15:27;35.97;;;16.80;;
18623;SDS011;9441;51.420;7.036;2024-01-07T05:16:29;39.23;;;17.37;;
18623;SDS011;9441;51.420;7.036;2024-01-07T05:17:30;34.93;;;17.13;;
18623;SDS011;9441;51.420;7.036;2024-01-07T05:18:33;36.60;;;16.73;;
18623;SDS011;9441;51.420;7.036;2024-01-07T05:19:34;34.20;;;16.27;;
18623;SDS011;9441;51.420;7.036;2024-01-07T05:20:36;36.90;;;17.33;;
18623;SDS011;9441;51.420;7.036;2024-01-07T05:21:38;38.57;;;16.80;;
18623;SDS011;9441;51.420;7.036;2024-01-07T05:22:39;38.70;;;17.40;;
18623;SDS011;9441;51.420;7.036;2024-01-07T05:23:41;40.23;;;17.60;;
18623;SDS011;9441;51.420;7.036;2024-01-07T05:24:42;43.10;;;18.10;;
18623;SDS011;9441;51.420;7.036;2024-01-07T05:25:45;45.57;;;17.43;;
18623;SDS011;9441;51.420;7.036;2024-01-07T05:26:46;42.23;;;17.20;;
18623;SDS011;9441;51.420;7.036;2024-01-07T05:27:49;42.07;;;17.07;;
18623;SDS011;9441;51.420;7.036;2024-01-07T05:28:50;44.63;;;18.13;;
18623;SDS011;9441;51.420;7.036;2024-01-07T05:29:52;39.60;;;17.40;;
18623;SDS011;9441;51.420;7.036;2024-01-07T05:30:56;39.70;;;17.70;;
18623;SDS011;9441;51.420;7.036;2024-01-07T05:31:58;38.20;;;17.60;;
18623;SDS011;9441;51.420;7.036;2024-01-07T05:33:00;36.60;;;17.17;;
18623;SDS011;9441;51.420;7.036;2024-01-07T05:34:02;35.77;;;17.00;;
18623;SDS011;9441;51.420;7.036;2024-01-07T05:35:04;40.53;;;18.70;;
18623;SDS011;9441;51.420;7.036;2024-01-07T05:36:06;41.93;;;19.67;;
18623;SDS011;9441;51.420;7.036;2024-01-07T05:37:08;41.40;;;18.47;;
18623;SDS011;9441;51.420;7.036;2024-01-07T05:38:10;37.17;;;17.07;;
18623;SDS011;9441;51.420;7.036;2024-01-07T05:39:11;39.90;;;17.07;;
18623;SDS011;9441;51.420;7.036;2024-01-07T05:40:14;34.70;;;17.13;;
18623;SDS011;9441;51.420;7.036;2024-01-07T05:41:15;41.27;;;18.33;;
18623;SDS011;9441;51.420;7.036;2024-01-07T05:42:16;37.10;;;17.80;;
18623;SDS011;9441;51.420;7.036;2024-01-07T05:43:19;38.80;;;17.33;;
18623;SDS011;9441;51.420;7.036;2024-01-07T05:44:20;39.20;;;17.43;;
18623;SDS011;9441;51.420;7.036;2024-01-07T05:45:22;37.57;;;17.10;;
18623;SDS011;9441;51.420;7.036;2024-01-07T05:46:25;36.27;;;17.00;;
18623;SDS011;9441;51.420;7.036;2024-01-07T05:47:27;37.27;;;17.03;;
18623;SDS011;9441;51.420;7.036;2024-01-07T05:48:29;38.50;;;17.03;;
18623;SDS011;9441;51.420;7.036;2024-01-07T05:49:31;39.53;;;18.10;;
18623;SDS011;9441;51.420;7.036;2024-01-07T05:50:33;35.50;;;16.83;;
18623;SDS011;9441;51.420;7.036;2024-01-07T05:51:37;40.13;;;17.73;;
18623;SDS011;9441;51.420;7.036;2024-01-07T05:52:40;40.33;;;17.33;;
18623;SDS011;9441;51.420;7.036;2024-01-07T05:53:41;41.20;;;17.53;;
18623;SDS011;9441;51.420;7.036;2024-01-07T05:54:44;42.07;;;17.57;;
18623;SDS011;9441;51.420;7.036;2024-01-07T05:55:45;35.73;;;16.17;;
18623;SDS011;9441;51.420;7.036;2024-01-07T05:56:47;35.80;;;17.07;;
18623;SDS011;9441;51.420;7.036;2024-01-07T05:57:48;38.00;;;17.20;;
18623;SDS011;9441;51.420;7.036;2024-01-07T05:58:51;37.87;;;16.50;;
18623;SDS011;9441;51.420;7.036;2024-01-07T05:59:52;35.83;;;16.27;;
18623;SDS011;9441;51.420;7.036;2024-01-07T06:00:54;40.70;;;17.53;;
18623;SDS011;9441;51.420;7.036;2024-01-07T06:01:59;37.50;;;17.07;;
18623;SDS011;9441;51.420;7.036;2024-01-07T06:03:00;34.97;;;16.67;;
18623;SDS011;9441;51.420;7.036;2024-01-07T06:04:02;37.87;;;17.17;;
18623;SDS011;9441;51.420;7.036;2024-01-07T06:05:04;37.57;;;16.57;;
18623;SDS011;9441;51.420;7.036;2024-01-07T06:06:06;37.37;;;17.27;;
18623;SDS011;9441;51.420;7.036;2024-01-07T06:07:08;39.33;;;17.53;;
18623;SDS011;9441;51.420;7.036;2024-01-07T06:08:10;31.90;;;15.70;;